sensor_id;sensor_type;location;lat;lon;timestamp;P1;durP1;ratioP1;P2;durP2;ratioP2
63536;SDS011;49686;51.880;5.632;2022-07-03T00:02:07;6.53;;;4.85;;
63536;SDS011;49686;51.880;5.632;2022-07-03T00:07:02;5.88;;;5.32;;
63536;SDS011;49686;51.880;5.632;2022-07-03T00:09:29;7.63;;;5.72;;
63536;SDS011;49686;51.880;5.632;2022-07-03T00:11:56;11.82;;;5.22;;
63536;SDS011;49686;51.880;5.632;2022-07-03T00:14:23;6.53;;;5.00;;
63536;SDS011;49686;51.880;5.632;2022-07-03T00:16:53;11.23;;;5.10;;
63536;SDS011;49686;51.880;5.632;2022-07-03T00:19:20;7.90;;;5.20;;
63536;SDS011;49686;51.880;5.632;2022-07-03T00:21:50;5.68;;;5.18;;
63536;SDS011;49686;51.880;5.632;2022-07-03T00:24:23;7.35;;;4.97;;
63536;SDS011;49686;51.880;5.632;2022-07-03T00:26:52;4.88;;;4.40;;
63536;SDS011;49686;51.880;5.632;2022-07-03T00:29:20;6.53;;;4.75;;
63536;SDS011;49686;51.880;5.632;2022-07-03T00:31:49;7.75;;;5.30;;
63536;SDS011;49686;51.880;5.632;2022-07-03T00:34:19;6.60;;;5.50;;
63536;SDS011;49686;51.880;5.632;2022-07-03T00:36:52;6.05;;;5.25;;
63536;SDS011;49686;51.880;5.632;2022-07-03T00:39:20;8.68;;;5.88;;
63536;SDS011;49686;51.880;5.632;2022-07-03T00:41:47;8.05;;;6.65;;
63536;SDS011;49686;51.880;5.632;2022-07-03T00:44:27;7.35;;;6.10;;
63536;SDS011;49686;51.880;5.632;2022-07-03T00:46:55;8.27;;;6.70;;
63536;SDS011;49686;51.880;5.632;2022-07-03T00:49:23;7.35;;;5.70;;
63536;SDS011;49686;51.880;5.632;2022-07-03T00:51:52;7.53;;;6.70;;
63536;SDS011;49686;51.880;5.632;2022-07-03T00:54:22;8.18;;;5.97;;
63536;SDS011;49686;51.880;5.632;2022-07-03T00:56:52;10.02;;;6.55;;
63536;SDS011;49686;51.880;5.632;2022-07-03T00:59:24;9.90;;;6.30;;
63536;SDS011;49686;51.880;5.632;2022-07-03T01:01:57;8.32;;;6.03;;
63536;SDS011;49686;51.880;5.632;2022-07-03T01:04:35;7.45;;;6.07;;
63536;SDS011;49686;51.880;5.632;2022-07-03T01:07:17;6.47;;;5.72;;
63536;SDS011;49686;51.880;5.632;2022-07-03T01:09:55;10.60;;;5.72;;
63536;SDS011;49686;51.880;5.632;2022-07-03T01:12:33;6.60;;;5.90;;
63536;SDS011;49686;51.880;5.632;2022-07-03T01:15:10;9.70;;;5.75;;
63536;SDS011;49686;51.880;5.632;2022-07-03T01:17:39;9.93;;;6.20;;
63536;SDS011;49686;51.880;5.632;2022-07-03T01:20:14;7.18;;;5.40;;
63536;SDS011;49686;51.880;5.632;2022-07-03T01:22:54;6.47;;;5.18;;
63536;SDS011;49686;51.880;5.632;2022-07-03T01:25:26;7.88;;;5.47;;
63536;SDS011;49686;51.880;5.632;2022-07-03T01:28:07;7.47;;;6.05;;
63536;SDS011;49686;51.880;5.632;2022-07-03T01:30:37;5.95;;;5.28;;
63536;SDS011;49686;51.880;5.632;2022-07-03T01:33:07;7.25;;;5.20;;
63536;SDS011;49686;51.880;5.632;2022-07-03T01:35:35;7.80;;;5.07;;
63536;SDS011;49686;51.880;5.632;2022-07-03T01:38:06;9.60;;;5.25;;
63536;SDS011;49686;51.880;5.632;2022-07-03T01:40:37;6.88;;;5.35;;
63536;SDS011;49686;51.880;5.632;2022-07-03T01:43:06;7.75;;;5.20;;
63536;SDS011;49686;51.880;5.632;2022-07-03T01:45:39;7.57;;;5.10;;
63536;SDS011;49686;51.880;5.632;2022-07-03T01:48:09;4.70;;;4.30;;
63536;SDS011;49686;51.880;5.632;2022-07-03T01:50:40;5.43;;;3.95;;
63536;SDS011;49686;51.880;5.632;2022-07-03T01:53:11;7.78;;;3.83;;
63536;SDS011;49686;51.880;5.632;2022-07-03T01:55:45;7.88;;;5.22;;
63536;SDS011;49686;51.880;5.632;2022-07-03T01:58:16;5.93;;;4.18;;
63536;SDS011;49686;51.880;5.632;2022-07-03T02:00:45;5.72;;;4.20;;
63536;SDS011;49686;51.880;5.632;2022-07-03T02:05:49;6.22;;;4.40;;
63536;SDS011;49686;51.880;5.632;2022-07-03T02:08:29;5.72;;;3.92;;
63536;SDS011;49686;51.880;5.632;2022-07-03T02:11:32;6.40;;;3.92;;
63536;SDS011;49686;51.880;5.632;2022-07-03T02:14:01;4.80;;;4.25;;
63536;SDS011;49686;51.880;5.632;2022-07-03T02:16:47;6.88;;;5.03;;
63536;SDS011;49686;51.880;5.632;2022-07-03T02:19:20;5.65;;;4.18;;
63536;SDS011;49686;51.880;5.632;2022-07-03T02:22:02;8.45;;;4.60;;
63536;SDS011;49686;51.880;5.632;2022-07-03T02:24:35;7.18;;;4.45;;
63536;SDS011;49686;51.880;5.632;2022-07-03T02:27:12;6.15;;;4.80;;
63536;SDS011;49686;51.880;5.632;2022-07-03T02:29:43;7.20;;;4.45;;
63536;SDS011;49686;51.880;5.632;2022-07-03T02:32:21;5.20;;;4.53;;
63536;SDS011;49686;51.880;5.632;2022-07-03T02:34:52;6.75;;;4.53;;
63536;SDS011;49686;51.880;5.632;2022-07-03T02:37:31;8.52;;;5.32;;
63536;SDS011;49686;51.880;5.632;2022-07-03T02:40:03;6.38;;;5.57;;
63536;SDS011;49686;51.880;5.632;2022-07-03T02:42:39;7.22;;;5.70;;
63536;SDS011;49686;51.880;5.632;2022-07-03T02:45:14;6.60;;;5.05;;
63536;SDS011;49686;51.880;5.632;2022-07-03T02:47:44;6.72;;;6.00;;
63536;SDS011;49686;51.880;5.632;2022-07-03T02:50:15;7.30;;;6.30;;
63536;SDS011;49686;51.880;5.632;2022-07-03T02:52:52;9.18;;;6.35;;
63536;SDS011;49686;51.880;5.632;2022-07-03T02:58:25;9.15;;;6.78;;
63536;SDS011;49686;51.880;5.632;2022-07-03T03:01:03;7.45;;;6.57;;
63536;SDS011;49686;51.880;5.632;2022-07-03T03:03:35;8.52;;;6.47;;
63536;SDS011;49686;51.880;5.632;2022-07-03T03:06:09;7.68;;;6.88;;
63536;SDS011;49686;51.880;5.632;2022-07-03T03:08:44;7.72;;;6.88;;
63536;SDS011;49686;51.880;5.632;2022-07-03T03:11:15;11.35;;;7.53;;
63536;SDS011;49686;51.880;5.632;2022-07-03T03:14:02;9.90;;;7.10;;
63536;SDS011;49686;51.880;5.632;2022-07-03T03:16:34;9.07;;;7.30;;
63536;SDS011;49686;51.880;5.632;2022-07-03T03:19:03;9.98;;;7.07;;
63536;SDS011;49686;51.880;5.632;2022-07-03T03:21:31;8.45;;;6.85;;
63536;SDS011;49686;51.880;5.632;2022-07-03T03:24:04;9.45;;;6.95;;
63536;SDS011;49686;51.880;5.632;2022-07-03T03:26:32;8.60;;;7.80;;
63536;SDS011;49686;51.880;5.632;2022-07-03T03:29:03;10.63;;;7.53;;
63536;SDS011;49686;51.880;5.632;2022-07-03T03:31:34;8.52;;;6.95;;
63536;SDS011;49686;51.880;5.632;2022-07-03T03:34:09;11.25;;;7.50;;
63536;SDS011;49686;51.880;5.632;2022-07-03T03:36:40;8.38;;;6.20;;
63536;SDS011;49686;51.880;5.632;2022-07-03T03:39:09;8.05;;;6.85;;
63536;SDS011;49686;51.880;5.632;2022-07-03T03:41:36;10.77;;;7.93;;
63536;SDS011;49686;51.880;5.632;2022-07-03T03:44:06;11.85;;;7.93;;
63536;SDS011;49686;51.880;5.632;2022-07-03T03:46:33;10.60;;;8.10;;
63536;SDS011;49686;51.880;5.632;2022-07-03T03:49:00;6.97;;;6.00;;
63536;SDS011;49686;51.880;5.632;2022-07-03T03:51:28;9.32;;;6.47;;
63536;SDS011;49686;51.880;5.632;2022-07-03T03:53:55;8.38;;;7.47;;
63536;SDS011;49686;51.880;5.632;2022-07-03T03:56:24;11.63;;;6.63;;
63536;SDS011;49686;51.880;5.632;2022-07-03T03:58:52;13.30;;;7.45;;
63536;SDS011;49686;51.880;5.632;2022-07-03T04:01:22;9.23;;;6.68;;
63536;SDS011;49686;51.880;5.632;2022-07-03T04:03:56;12.27;;;6.63;;
63536;SDS011;49686;51.880;5.632;2022-07-03T04:06:23;12.25;;;7.32;;
63536;SDS011;49686;51.880;5.632;2022-07-03T04:08:50;10.13;;;7.65;;
63536;SDS011;49686;51.880;5.632;2022-07-03T04:11:19;11.40;;;7.88;;
63536;SDS011;49686;51.880;5.632;2022-07-03T04:13:46;10.80;;;8.32;;
63536;SDS011;49686;51.880;5.632;2022-07-03T04:16:13;11.60;;;8.07;;
63536;SDS011;49686;51.880;5.632;2022-07-03T04:18:42;11.60;;;7.93;;
63536;SDS011;49686;51.880;5.632;2022-07-03T04:21:10;12.10;;;8.38;;
63536;SDS011;49686;51.880;5.632;2022-07-03T04:23:39;9.60;;;7.43;;
63536;SDS011;49686;51.880;5.632;2022-07-03T04:26:06;8.80;;;7.45;;
63536;SDS011;49686;51.880;5.632;2022-07-03T04:28:41;10.30;;;7.82;;
63536;SDS011;49686;51.880;5.632;2022-07-03T04:31:11;8.50;;;7.43;;
63536;SDS011;49686;51.880;5.632;2022-07-03T04:33:38;12.20;;;7.65;;
63536;SDS011;49686;51.880;5.632;2022-07-03T04:36:14;10.35;;;8.13;;
63536;SDS011;49686;51.880;5.632;2022-07-03T04:38:41;12.13;;;8.25;;
63536;SDS011;49686;51.880;5.632;2022-07-03T04:41:09;9.33;;;7.47;;
63536;SDS011;49686;51.880;5.632;2022-07-03T04:43:36;9.23;;;7.85;;
63536;SDS011;49686;51.880;5.632;2022-07-03T04:46:03;8.98;;;7.10;;
63536;SDS011;49686;51.880;5.632;2022-07-03T04:48:30;9.02;;;6.63;;
63536;SDS011;49686;51.880;5.632;2022-07-03T04:51:00;13.05;;;5.30;;
63536;SDS011;49686;51.880;5.632;2022-07-03T04:53:29;7.85;;;4.47;;
63536;SDS011;49686;51.880;5.632;2022-07-03T04:55:56;7.85;;;4.30;;
63536;SDS011;49686;51.880;5.632;2022-07-03T04:58:23;4.97;;;3.53;;
63536;SDS011;49686;51.880;5.632;2022-07-03T05:00:50;4.53;;;3.47;;
63536;SDS011;49686;51.880;5.632;2022-07-03T05:03:17;9.00;;;4.03;;
63536;SDS011;49686;51.880;5.632;2022-07-03T05:05:44;7.22;;;4.45;;
63536;SDS011;49686;51.880;5.632;2022-07-03T05:08:11;7.15;;;5.50;;
63536;SDS011;49686;51.880;5.632;2022-07-03T05:10:40;7.32;;;5.40;;
63536;SDS011;49686;51.880;5.632;2022-07-03T05:13:07;7.05;;;5.97;;
63536;SDS011;49686;51.880;5.632;2022-07-03T05:15:37;5.07;;;4.40;;
63536;SDS011;49686;51.880;5.632;2022-07-03T05:18:03;8.38;;;4.55;;
63536;SDS011;49686;51.880;5.632;2022-07-03T05:20:31;6.93;;;4.93;;
63536;SDS011;49686;51.880;5.632;2022-07-03T05:22:58;7.15;;;4.63;;
63536;SDS011;49686;51.880;5.632;2022-07-03T05:25:26;7.47;;;5.60;;
63536;SDS011;49686;51.880;5.632;2022-07-03T05:27:57;6.47;;;5.30;;
63536;SDS011;49686;51.880;5.632;2022-07-03T05:30:24;8.38;;;4.70;;
63536;SDS011;49686;51.880;5.632;2022-07-03T05:32:53;8.13;;;4.72;;
63536;SDS011;49686;51.880;5.632;2022-07-03T05:35:21;6.57;;;4.07;;
63536;SDS011;49686;51.880;5.632;2022-07-03T05:37:49;4.82;;;3.53;;
63536;SDS011;49686;51.880;5.632;2022-07-03T05:40:16;6.47;;;3.40;;
63536;SDS011;49686;51.880;5.632;2022-07-03T05:42:43;5.45;;;2.88;;
63536;SDS011;49686;51.880;5.632;2022-07-03T05:45:17;5.25;;;3.50;;
63536;SDS011;49686;51.880;5.632;2022-07-03T05:47:44;6.85;;;3.15;;
63536;SDS011;49686;51.880;5.632;2022-07-03T05:50:11;4.85;;;3.10;;
63536;SDS011;49686;51.880;5.632;2022-07-03T05:52:38;6.18;;;3.45;;
63536;SDS011;49686;51.880;5.632;2022-07-03T05:55:06;4.93;;;3.15;;
63536;SDS011;49686;51.880;5.632;2022-07-03T05:57:33;5.55;;;3.17;;
63536;SDS011;49686;51.880;5.632;2022-07-03T06:00:00;6.70;;;3.20;;
63536;SDS011;49686;51.880;5.632;2022-07-03T06:02:29;7.28;;;3.35;;
63536;SDS011;49686;51.880;5.632;2022-07-03T06:04:58;5.03;;;2.88;;
63536;SDS011;49686;51.880;5.632;2022-07-03T06:07:25;5.43;;;2.85;;
63536;SDS011;49686;51.880;5.632;2022-07-03T06:09:52;9.00;;;2.92;;
63536;SDS011;49686;51.880;5.632;2022-07-03T06:12:19;3.92;;;2.42;;
63536;SDS011;49686;51.880;5.632;2022-07-03T06:14:46;4.13;;;2.10;;
63536;SDS011;49686;51.880;5.632;2022-07-03T06:17:17;4.28;;;2.08;;
63536;SDS011;49686;51.880;5.632;2022-07-03T06:19:45;4.35;;;2.10;;
63536;SDS011;49686;51.880;5.632;2022-07-03T06:22:15;7.00;;;2.70;;
63536;SDS011;49686;51.880;5.632;2022-07-03T06:24:44;4.77;;;1.93;;
63536;SDS011;49686;51.880;5.632;2022-07-03T06:27:11;4.80;;;1.65;;
63536;SDS011;49686;51.880;5.632;2022-07-03T06:29:38;4.95;;;1.80;;
63536;SDS011;49686;51.880;5.632;2022-07-03T06:32:06;5.70;;;2.00;;
63536;SDS011;49686;51.880;5.632;2022-07-03T06:34:33;4.50;;;1.73;;
63536;SDS011;49686;51.880;5.632;2022-07-03T06:37:04;6.78;;;2.10;;
63536;SDS011;49686;51.880;5.632;2022-07-03T06:39:33;4.13;;;1.83;;
63536;SDS011;49686;51.880;5.632;2022-07-03T06:42:00;6.15;;;1.77;;
63536;SDS011;49686;51.880;5.632;2022-07-03T06:44:27;4.25;;;1.80;;
63536;SDS011;49686;51.880;5.632;2022-07-03T06:46:54;6.85;;;1.90;;
63536;SDS011;49686;51.880;5.632;2022-07-03T06:49:21;3.92;;;1.85;;
63536;SDS011;49686;51.880;5.632;2022-07-03T06:51:48;3.75;;;1.65;;
63536;SDS011;49686;51.880;5.632;2022-07-03T06:54:18;5.97;;;1.73;;
63536;SDS011;49686;51.880;5.632;2022-07-03T06:56:44;6.07;;;1.70;;
63536;SDS011;49686;51.880;5.632;2022-07-03T06:59:11;4.97;;;1.90;;
63536;SDS011;49686;51.880;5.632;2022-07-03T07:01:44;6.82;;;1.67;;
63536;SDS011;49686;51.880;5.632;2022-07-03T07:04:11;6.32;;;1.75;;
63536;SDS011;49686;51.880;5.632;2022-07-03T07:06:38;5.85;;;1.50;;
63536;SDS011;49686;51.880;5.632;2022-07-03T07:09:06;3.72;;;1.50;;
63536;SDS011;49686;51.880;5.632;2022-07-03T07:11:38;7.82;;;1.60;;
63536;SDS011;49686;51.880;5.632;2022-07-03T07:14:06;5.90;;;1.60;;
63536;SDS011;49686;51.880;5.632;2022-07-03T07:16:32;4.93;;;1.60;;
63536;SDS011;49686;51.880;5.632;2022-07-03T07:18:59;5.50;;;1.80;;
63536;SDS011;49686;51.880;5.632;2022-07-03T07:21:27;5.43;;;1.30;;
63536;SDS011;49686;51.880;5.632;2022-07-03T07:23:54;5.50;;;1.58;;
63536;SDS011;49686;51.880;5.632;2022-07-03T07:26:20;4.95;;;1.55;;
63536;SDS011;49686;51.880;5.632;2022-07-03T07:28:49;4.55;;;1.33;;
63536;SDS011;49686;51.880;5.632;2022-07-03T07:31:16;4.88;;;1.80;;
63536;SDS011;49686;51.880;5.632;2022-07-03T07:33:45;5.90;;;1.80;;
63536;SDS011;49686;51.880;5.632;2022-07-03T07:36:12;5.07;;;1.33;;
63536;SDS011;49686;51.880;5.632;2022-07-03T07:38:39;6.90;;;1.67;;
63536;SDS011;49686;51.880;5.632;2022-07-03T07:41:06;9.38;;;1.70;;
63536;SDS011;49686;51.880;5.632;2022-07-03T07:43:34;5.32;;;1.98;;
63536;SDS011;49686;51.880;5.632;2022-07-03T07:46:02;3.70;;;1.42;;
63536;SDS011;49686;51.880;5.632;2022-07-03T07:48:31;6.18;;;1.80;;
63536;SDS011;49686;51.880;5.632;2022-07-03T07:51:02;2.80;;;1.50;;
63536;SDS011;49686;51.880;5.632;2022-07-03T07:53:32;3.95;;;1.13;;
63536;SDS011;49686;51.880;5.632;2022-07-03T07:55:58;3.53;;;1.70;;
63536;SDS011;49686;51.880;5.632;2022-07-03T07:58:26;5.10;;;1.48;;
63536;SDS011;49686;51.880;5.632;2022-07-03T08:00:53;6.07;;;1.95;;
63536;SDS011;49686;51.880;5.632;2022-07-03T08:03:21;3.38;;;1.40;;
63536;SDS011;49686;51.880;5.632;2022-07-03T08:05:51;3.35;;;1.48;;
63536;SDS011;49686;51.880;5.632;2022-07-03T08:08:18;5.60;;;2.28;;
63536;SDS011;49686;51.880;5.632;2022-07-03T08:10:47;3.92;;;1.60;;
63536;SDS011;49686;51.880;5.632;2022-07-03T08:13:18;5.43;;;1.13;;
63536;SDS011;49686;51.880;5.632;2022-07-03T08:15:48;2.45;;;1.00;;
63536;SDS011;49686;51.880;5.632;2022-07-03T08:18:15;2.17;;;1.10;;
63536;SDS011;49686;51.880;5.632;2022-07-03T08:20:44;3.28;;;1.48;;
63536;SDS011;49686;51.880;5.632;2022-07-03T08:23:13;2.25;;;1.00;;
63536;SDS011;49686;51.880;5.632;2022-07-03T08:25:40;2.83;;;0.98;;
63536;SDS011;49686;51.880;5.632;2022-07-03T08:28:08;4.63;;;1.50;;
63536;SDS011;49686;51.880;5.632;2022-07-03T08:30:35;3.25;;;1.00;;
63536;SDS011;49686;51.880;5.632;2022-07-03T08:33:04;2.17;;;0.95;;
63536;SDS011;49686;51.880;5.632;2022-07-03T08:35:32;2.75;;;1.10;;
63536;SDS011;49686;51.880;5.632;2022-07-03T08:38:05;4.30;;;1.65;;
63536;SDS011;49686;51.880;5.632;2022-07-03T08:40:32;3.67;;;0.98;;
63536;SDS011;49686;51.880;5.632;2022-07-03T08:43:03;2.80;;;1.27;;
63536;SDS011;49686;51.880;5.632;2022-07-03T08:45:30;4.28;;;1.40;;
63536;SDS011;49686;51.880;5.632;2022-07-03T08:48:02;7.88;;;1.48;;
63536;SDS011;49686;51.880;5.632;2022-07-03T08:50:31;3.95;;;1.38;;
63536;SDS011;49686;51.880;5.632;2022-07-03T08:53:02;4.38;;;1.40;;
63536;SDS011;49686;51.880;5.632;2022-07-03T08:55:30;3.25;;;1.65;;
63536;SDS011;49686;51.880;5.632;2022-07-03T08:58:00;1.63;;;0.80;;
63536;SDS011;49686;51.880;5.632;2022-07-03T09:00:34;1.77;;;0.80;;
63536;SDS011;49686;51.880;5.632;2022-07-03T09:03:03;3.13;;;1.10;;
63536;SDS011;49686;51.880;5.632;2022-07-03T09:05:39;3.08;;;0.95;;
63536;SDS011;49686;51.880;5.632;2022-07-03T09:08:07;2.38;;;1.15;;
63536;SDS011;49686;51.880;5.632;2022-07-03T09:10:36;6.68;;;1.95;;
63536;SDS011;49686;51.880;5.632;2022-07-03T09:13:04;2.75;;;1.30;;
63536;SDS011;49686;51.880;5.632;2022-07-03T09:15:31;1.75;;;0.95;;
63536;SDS011;49686;51.880;5.632;2022-07-03T09:18:01;2.72;;;1.58;;
63536;SDS011;49686;51.880;5.632;2022-07-03T09:20:31;4.32;;;1.70;;
63536;SDS011;49686;51.880;5.632;2022-07-03T09:23:09;3.47;;;1.02;;
63536;SDS011;49686;51.880;5.632;2022-07-03T09:25:51;2.88;;;1.50;;
63536;SDS011;49686;51.880;5.632;2022-07-03T09:28:22;6.22;;;2.10;;
63536;SDS011;49686;51.880;5.632;2022-07-03T09:33:23;1.90;;;1.00;;
63536;SDS011;49686;51.880;5.632;2022-07-03T09:35:54;4.35;;;1.80;;
63536;SDS011;49686;51.880;5.632;2022-07-03T09:38:22;3.95;;;1.35;;
63536;SDS011;49686;51.880;5.632;2022-07-03T09:40:51;2.75;;;1.30;;
63536;SDS011;49686;51.880;5.632;2022-07-03T09:43:23;1.95;;;0.70;;
63536;SDS011;49686;51.880;5.632;2022-07-03T09:45:52;6.63;;;1.50;;
63536;SDS011;49686;51.880;5.632;2022-07-03T09:48:24;3.63;;;1.40;;
63536;SDS011;49686;51.880;5.632;2022-07-03T09:53:54;3.55;;;1.40;;
63536;SDS011;49686;51.880;5.632;2022-07-03T09:56:25;5.43;;;1.63;;
63536;SDS011;49686;51.880;5.632;2022-07-03T09:59:04;3.13;;;1.30;;
63536;SDS011;49686;51.880;5.632;2022-07-03T10:01:35;2.83;;;1.10;;
63536;SDS011;49686;51.880;5.632;2022-07-03T10:04:10;3.28;;;1.38;;
63536;SDS011;49686;51.880;5.632;2022-07-03T10:06:45;2.90;;;1.20;;
63536;SDS011;49686;51.880;5.632;2022-07-03T10:09:14;3.95;;;1.40;;
63536;SDS011;49686;51.880;5.632;2022-07-03T10:11:43;3.20;;;0.90;;
63536;SDS011;49686;51.880;5.632;2022-07-03T10:14:12;3.95;;;1.23;;
63536;SDS011;49686;51.880;5.632;2022-07-03T10:16:41;1.27;;;0.80;;
63536;SDS011;49686;51.880;5.632;2022-07-03T10:19:12;1.27;;;0.60;;
63536;SDS011;49686;51.880;5.632;2022-07-03T10:21:41;2.88;;;1.10;;
63536;SDS011;49686;51.880;5.632;2022-07-03T10:24:09;3.35;;;1.13;;
63536;SDS011;49686;51.880;5.632;2022-07-03T10:29:08;1.30;;;0.82;;
63536;SDS011;49686;51.880;5.632;2022-07-03T10:31:36;2.38;;;1.00;;
63536;SDS011;49686;51.880;5.632;2022-07-03T10:34:04;5.17;;;1.40;;
63536;SDS011;49686;51.880;5.632;2022-07-03T10:36:32;3.80;;;1.35;;
63536;SDS011;49686;51.880;5.632;2022-07-03T10:39:02;2.75;;;1.08;;
63536;SDS011;49686;51.880;5.632;2022-07-03T10:41:33;1.50;;;1.20;;
63536;SDS011;49686;51.880;5.632;2022-07-03T10:44:02;4.68;;;1.27;;
63536;SDS011;49686;51.880;5.632;2022-07-03T10:46:31;2.90;;;1.65;;
63536;SDS011;49686;51.880;5.632;2022-07-03T10:49:00;2.42;;;1.20;;
63536;SDS011;49686;51.880;5.632;2022-07-03T10:51:29;2.90;;;1.50;;
63536;SDS011;49686;51.880;5.632;2022-07-03T10:54:13;2.83;;;1.45;;
63536;SDS011;49686;51.880;5.632;2022-07-03T11:02:31;1.70;;;1.10;;
63536;SDS011;49686;51.880;5.632;2022-07-03T11:05:09;2.67;;;0.98;;
63536;SDS011;49686;51.880;5.632;2022-07-03T11:07:42;1.10;;;1.00;;
63536;SDS011;49686;51.880;5.632;2022-07-03T11:10:28;3.17;;;1.35;;
63536;SDS011;49686;51.880;5.632;2022-07-03T11:13:01;3.17;;;1.77;;
63536;SDS011;49686;51.880;5.632;2022-07-03T11:15:30;2.63;;;1.30;;
63536;SDS011;49686;51.880;5.632;2022-07-03T11:18:09;3.97;;;1.25;;
63536;SDS011;49686;51.880;5.632;2022-07-03T11:24:04;3.08;;;1.23;;
63536;SDS011;49686;51.880;5.632;2022-07-03T11:27:13;2.58;;;1.52;;
63536;SDS011;49686;51.880;5.632;2022-07-03T11:29:48;2.67;;;1.20;;
63536;SDS011;49686;51.880;5.632;2022-07-03T11:35:10;2.13;;;1.10;;
63536;SDS011;49686;51.880;5.632;2022-07-03T11:38:11;2.70;;;1.33;;
63536;SDS011;49686;51.880;5.632;2022-07-03T11:40:41;2.95;;;1.10;;
63536;SDS011;49686;51.880;5.632;2022-07-03T11:43:09;2.33;;;1.02;;
63536;SDS011;49686;51.880;5.632;2022-07-03T11:48:05;3.97;;;1.35;;
63536;SDS011;49686;51.880;5.632;2022-07-03T11:50:38;2.35;;;1.20;;
63536;SDS011;49686;51.880;5.632;2022-07-03T11:53:19;3.10;;;1.25;;
63536;SDS011;49686;51.880;5.632;2022-07-03T11:55:51;3.70;;;1.30;;
63536;SDS011;49686;51.880;5.632;2022-07-03T11:58:22;2.22;;;1.20;;
63536;SDS011;49686;51.880;5.632;2022-07-03T12:00:50;4.00;;;1.00;;
63536;SDS011;49686;51.880;5.632;2022-07-03T12:03:21;1.80;;;1.05;;
63536;SDS011;49686;51.880;5.632;2022-07-03T12:05:55;3.05;;;1.30;;
63536;SDS011;49686;51.880;5.632;2022-07-03T12:08:24;2.47;;;1.25;;
63536;SDS011;49686;51.880;5.632;2022-07-03T12:10:56;2.65;;;1.05;;
63536;SDS011;49686;51.880;5.632;2022-07-03T12:13:25;3.47;;;1.10;;
63536;SDS011;49686;51.880;5.632;2022-07-03T12:15:53;3.47;;;0.93;;
63536;SDS011;49686;51.880;5.632;2022-07-03T12:18:20;2.50;;;1.13;;
63536;SDS011;49686;51.880;5.632;2022-07-03T12:20:47;1.63;;;0.88;;
63536;SDS011;49686;51.880;5.632;2022-07-03T12:23:16;2.43;;;1.07;;
63536;SDS011;49686;51.880;5.632;2022-07-03T12:25:46;2.00;;;0.80;;
63536;SDS011;49686;51.880;5.632;2022-07-03T12:28:16;2.30;;;1.00;;
63536;SDS011;49686;51.880;5.632;2022-07-03T12:30:43;3.42;;;0.90;;
63536;SDS011;49686;51.880;5.632;2022-07-03T12:33:15;1.58;;;1.00;;
63536;SDS011;49686;51.880;5.632;2022-07-03T12:35:43;5.13;;;1.10;;
63536;SDS011;49686;51.880;5.632;2022-07-03T12:38:10;2.03;;;1.23;;
63536;SDS011;49686;51.880;5.632;2022-07-03T12:40:41;2.75;;;0.80;;
63536;SDS011;49686;51.880;5.632;2022-07-03T12:43:08;2.88;;;1.23;;
63536;SDS011;49686;51.880;5.632;2022-07-03T12:45:37;1.83;;;0.70;;
63536;SDS011;49686;51.880;5.632;2022-07-03T12:48:06;3.55;;;0.90;;
63536;SDS011;49686;51.880;5.632;2022-07-03T12:50:43;3.17;;;1.00;;
63536;SDS011;49686;51.880;5.632;2022-07-03T12:53:10;3.63;;;0.70;;
63536;SDS011;49686;51.880;5.632;2022-07-03T12:55:53;1.33;;;0.80;;
63536;SDS011;49686;51.880;5.632;2022-07-03T12:58:22;2.55;;;1.00;;
63536;SDS011;49686;51.880;5.632;2022-07-03T13:00:49;3.55;;;1.25;;
63536;SDS011;49686;51.880;5.632;2022-07-03T13:03:26;2.03;;;1.00;;
63536;SDS011;49686;51.880;5.632;2022-07-03T13:06:11;1.58;;;0.90;;
63536;SDS011;49686;51.880;5.632;2022-07-03T13:08:52;2.17;;;1.00;;
63536;SDS011;49686;51.880;5.632;2022-07-03T13:11:29;2.30;;;1.10;;
63536;SDS011;49686;51.880;5.632;2022-07-03T13:14:05;2.28;;;1.25;;
63536;SDS011;49686;51.880;5.632;2022-07-03T13:16:40;2.30;;;1.48;;
63536;SDS011;49686;51.880;5.632;2022-07-03T13:19:09;1.80;;;0.75;;
63536;SDS011;49686;51.880;5.632;2022-07-03T13:24:05;3.10;;;1.40;;
63536;SDS011;49686;51.880;5.632;2022-07-03T13:26:36;2.97;;;1.40;;
63536;SDS011;49686;51.880;5.632;2022-07-03T13:29:05;2.10;;;1.70;;
63536;SDS011;49686;51.880;5.632;2022-07-03T13:31:32;1.88;;;1.45;;
63536;SDS011;49686;51.880;5.632;2022-07-03T13:34:00;2.83;;;1.40;;
63536;SDS011;49686;51.880;5.632;2022-07-03T13:36:28;3.72;;;1.60;;
63536;SDS011;49686;51.880;5.632;2022-07-03T13:38:59;1.77;;;1.40;;
63536;SDS011;49686;51.880;5.632;2022-07-03T13:41:27;1.88;;;1.25;;
63536;SDS011;49686;51.880;5.632;2022-07-03T13:43:56;1.95;;;1.30;;
63536;SDS011;49686;51.880;5.632;2022-07-03T13:46:23;3.22;;;1.10;;
63536;SDS011;49686;51.880;5.632;2022-07-03T13:48:51;3.05;;;1.00;;
63536;SDS011;49686;51.880;5.632;2022-07-03T13:51:18;2.00;;;1.00;;
63536;SDS011;49686;51.880;5.632;2022-07-03T13:53:48;1.77;;;1.25;;
63536;SDS011;49686;51.880;5.632;2022-07-03T13:56:18;2.55;;;1.10;;
63536;SDS011;49686;51.880;5.632;2022-07-03T13:58:45;3.17;;;1.00;;
63536;SDS011;49686;51.880;5.632;2022-07-03T14:01:19;3.25;;;1.08;;
63536;SDS011;49686;51.880;5.632;2022-07-03T14:03:47;1.50;;;0.88;;
63536;SDS011;49686;51.880;5.632;2022-07-03T14:06:14;1.75;;;0.90;;
63536;SDS011;49686;51.880;5.632;2022-07-03T14:08:42;2.35;;;0.90;;
63536;SDS011;49686;51.880;5.632;2022-07-03T14:11:09;2.25;;;1.10;;
63536;SDS011;49686;51.880;5.632;2022-07-03T14:13:35;5.00;;;1.20;;
63536;SDS011;49686;51.880;5.632;2022-07-03T14:16:03;4.33;;;1.40;;
63536;SDS011;49686;51.880;5.632;2022-07-03T14:18:32;4.10;;;1.50;;
63536;SDS011;49686;51.880;5.632;2022-07-03T14:21:00;2.40;;;1.30;;
63536;SDS011;49686;51.880;5.632;2022-07-03T14:23:28;3.20;;;1.10;;
63536;SDS011;49686;51.880;5.632;2022-07-03T14:25:55;3.38;;;1.70;;
63536;SDS011;49686;51.880;5.632;2022-07-03T14:28:21;2.35;;;1.20;;
63536;SDS011;49686;51.880;5.632;2022-07-03T14:30:49;3.42;;;1.10;;
63536;SDS011;49686;51.880;5.632;2022-07-03T14:33:16;3.33;;;1.00;;
63536;SDS011;49686;51.880;5.632;2022-07-03T14:35:44;6.35;;;1.27;;
63536;SDS011;49686;51.880;5.632;2022-07-03T14:38:12;4.13;;;1.30;;
63536;SDS011;49686;51.880;5.632;2022-07-03T14:40:41;2.58;;;1.05;;
63536;SDS011;49686;51.880;5.632;2022-07-03T14:43:07;2.25;;;0.90;;
63536;SDS011;49686;51.880;5.632;2022-07-03T14:45:35;2.08;;;0.98;;
63536;SDS011;49686;51.880;5.632;2022-07-03T14:48:07;2.30;;;0.88;;
63536;SDS011;49686;51.880;5.632;2022-07-03T14:50:34;2.28;;;1.25;;
63536;SDS011;49686;51.880;5.632;2022-07-03T14:53:09;2.85;;;1.55;;
63536;SDS011;49686;51.880;5.632;2022-07-03T14:55:36;3.60;;;1.10;;
63536;SDS011;49686;51.880;5.632;2022-07-03T14:58:05;1.42;;;0.93;;
63536;SDS011;49686;51.880;5.632;2022-07-03T15:00:45;3.20;;;1.10;;
63536;SDS011;49686;51.880;5.632;2022-07-03T15:03:15;3.55;;;1.17;;
63536;SDS011;49686;51.880;5.632;2022-07-03T15:05:45;3.25;;;1.30;;
63536;SDS011;49686;51.880;5.632;2022-07-03T15:10:53;2.45;;;0.90;;
63536;SDS011;49686;51.880;5.632;2022-07-03T15:13:22;3.42;;;0.95;;
63536;SDS011;49686;51.880;5.632;2022-07-03T15:15:50;2.25;;;1.00;;
63536;SDS011;49686;51.880;5.632;2022-07-03T15:18:20;2.00;;;0.98;;
63536;SDS011;49686;51.880;5.632;2022-07-03T15:20:47;3.40;;;1.10;;
63536;SDS011;49686;51.880;5.632;2022-07-03T15:23:17;1.95;;;0.90;;
63536;SDS011;49686;51.880;5.632;2022-07-03T15:25:47;1.52;;;0.80;;
63536;SDS011;49686;51.880;5.632;2022-07-03T15:28:15;3.17;;;0.90;;
63536;SDS011;49686;51.880;5.632;2022-07-03T15:30:45;3.85;;;1.10;;
63536;SDS011;49686;51.880;5.632;2022-07-03T15:33:14;3.92;;;1.45;;
63536;SDS011;49686;51.880;5.632;2022-07-03T15:35:43;4.22;;;1.13;;
63536;SDS011;49686;51.880;5.632;2022-07-03T15:38:14;1.63;;;0.85;;
63536;SDS011;49686;51.880;5.632;2022-07-03T15:40:47;2.50;;;0.90;;
63536;SDS011;49686;51.880;5.632;2022-07-03T15:43:35;3.17;;;1.05;;